sensor_id;sensor_type;location;lat;lon;timestamp;temperature;humidity
11304;DHT22;5707;49.588;12.148;2023-08-31T00:01:09;12.80;99.90
11304;DHT22;5707;49.588;12.148;2023-08-31T00:03:35;12.70;99.90
11304;DHT22;5707;49.588;12.148;2023-08-31T00:06:03;12.70;99.90
11304;DHT22;5707;49.588;12.148;2023-08-31T00:08:30;12.70;99.90
11304;DHT22;5707;49.588;12.148;2023-08-31T00:10:59;12.60;99.90
11304;DHT22;5707;49.588;12.148;2023-08-31T00:13:26;12.60;99.90
11304;DHT22;5707;49.588;12.148;2023-08-31T00:15:55;12.60;99.90
11304;DHT22;5707;49.588;12.148;2023-08-31T00:18:21;12.60;99.90
11304;DHT22;5707;49.588;12.148;2023-08-31T00:20:47;12.50;99.90
11304;DHT22;5707;49.588;12.148;2023-08-31T00:23:12;12.50;99.90
11304;DHT22;5707;49.588;12.148;2023-08-31T00:25:38;12.50;99.90
11304;DHT22;5707;49.588;12.148;2023-08-31T00:28:04;12.50;99.90
11304;DHT22;5707;49.588;12.148;2023-08-31T00:30:33;12.50;99.90
11304;DHT22;5707;49.588;12.148;2023-08-31T00:32:58;12.50;99.90
11304;DHT22;5707;49.588;12.148;2023-08-31T00:35:28;12.50;99.90
11304;DHT22;5707;49.588;12.148;2023-08-31T00:37:54;12.50;99.90
11304;DHT22;5707;49.588;12.148;2023-08-31T00:40:24;12.40;99.90
11304;DHT22;5707;49.588;12.148;2023-08-31T00:42:50;12.50;99.90
11304;DHT22;5707;49.588;12.148;2023-08-31T00:45:17;12.40;99.90
11304;DHT22;5707;49.588;12.148;2023-08-31T00:47:43;12.40;99.90
11304;DHT22;5707;49.588;12.148;2023-08-31T00:50:09;12.40;99.90
11304;DHT22;5707;49.588;12.148;2023-08-31T00:52:34;12.40;99.90
11304;DHT22;5707;49.588;12.148;2023-08-31T00:55:00;12.40;99.90
11304;DHT22;5707;49.588;12.148;2023-08-31T00:57:30;12.40;99.90
11304;DHT22;5707;49.588;12.148;2023-08-31T00:59:56;12.40;99.90
11304;DHT22;5707;49.588;12.148;2023-08-31T01:11:57;12.40;99.90
11304;DHT22;5707;49.588;12.148;2023-08-31T01:14:27;12.50;99.90
11304;DHT22;5707;49.588;12.148;2023-08-31T01:16:58;12.50;99.90
11304;DHT22;5707;49.588;12.148;2023-08-31T01:22:13;12.50;99.90
11304;DHT22;5707;49.588;12.148;2023-08-31T01:24:40;12.50;99.90
11304;DHT22;5707;49.588;12.148;2023-08-31T01:27:06;12.50;99.90
11304;DHT22;5707;49.588;12.148;2023-08-31T01:29:32;12.50;99.90
11304;DHT22;5707;49.588;12.148;2023-08-31T01:31:58;12.50;99.90
11304;DHT22;5707;49.588;12.148;2023-08-31T01:34:23;12.50;99.90
11304;DHT22;5707;49.588;12.148;2023-08-31T01:36:55;12.50;99.90
11304;DHT22;5707;49.588;12.148;2023-08-31T01:39:32;12.40;99.90
11304;DHT22;5707;49.588;12.148;2023-08-31T01:42:03;12.40;99.90
11304;DHT22;5707;49.588;12.148;2023-08-31T01:44:31;12.30;99.90
11304;DHT22;5707;49.588;12.148;2023-08-31T01:47:03;12.30;99.90
11304;DHT22;5707;49.588;12.148;2023-08-31T01:49:38;12.20;99.90
11304;DHT22;5707;49.588;12.148;2023-08-31T01:52:04;12.20;99.90
11304;DHT22;5707;49.588;12.148;2023-08-31T01:54:31;12.20;99.90
11304;DHT22;5707;49.588;12.148;2023-08-31T01:56:56;12.20;99.90
11304;DHT22;5707;49.588;12.148;2023-08-31T01:59:22;12.20;99.90
11304;DHT22;5707;49.588;12.148;2023-08-31T02:01:47;12.30;99.90
11304;DHT22;5707;49.588;12.148;2023-08-31T02:04:13;12.30;99.90
11304;DHT22;5707;49.588;12.148;2023-08-31T02:06:38;12.30;99.90
11304;DHT22;5707;49.588;12.148;2023-08-31T02:09:04;12.30;99.90
11304;DHT22;5707;49.588;12.148;2023-08-31T02:11:31;12.30;99.90
11304;DHT22;5707;49.588;12.148;2023-08-31T02:13:57;12.30;99.90
11304;DHT22;5707;49.588;12.148;2023-08-31T02:16:23;12.30;99.90
11304;DHT22;5707;49.588;12.148;2023-08-31T02:18:48;12.30;99.90
11304;DHT22;5707;49.588;12.148;2023-08-31T02:21:14;12.30;99.90
11304;DHT22;5707;49.588;12.148;2023-08-31T02:23:39;12.30;99.90
11304;DHT22;5707;49.588;12.148;2023-08-31T02:26:05;12.30;99.90
11304;DHT22;5707;49.588;12.148;2023-08-31T02:28:30;12.30;99.90
11304;DHT22;5707;49.588;12.148;2023-08-31T02:31:02;12.30;99.90
11304;DHT22;5707;49.588;12.148;2023-08-31T02:33:28;12.30;99.90
11304;DHT22;5707;49.588;12.148;2023-08-31T02:35:56;12.40;99.90
11304;DHT22;5707;49.588;12.148;2023-08-31T02:38:22;12.40;99.90
11304;DHT22;5707;49.588;12.148;2023-08-31T02:40:48;12.40;99.90
11304;DHT22;5707;49.588;12.148;2023-08-31T02:43:14;12.40;99.90
11304;DHT22;5707;49.588;12.148;2023-08-31T02:45:40;12.50;99.90
11304;DHT22;5707;49.588;12.148;2023-08-31T02:48:07;12.50;99.90
11304;DHT22;5707;49.588;12.148;2023-08-31T02:50:34;12.50;99.90
11304;DHT22;5707;49.588;12.148;2023-08-31T02:53:00;12.50;99.90
11304;DHT22;5707;49.588;12.148;2023-08-31T02:55:26;12.50;99.90
11304;DHT22;5707;49.588;12.148;2023-08-31T02:57:51;12.50;99.90
11304;DHT22;5707;49.588;12.148;2023-08-31T03:00:17;12.40;99.90
11304;DHT22;5707;49.588;12.148;2023-08-31T03:02:49;12.40;99.90
11304;DHT22;5707;49.588;12.148;2023-08-31T03:05:18;12.40;99.90
11304;DHT22;5707;49.588;12.148;2023-08-31T03:07:44;12.40;99.90
11304;DHT22;5707;49.588;12.148;2023-08-31T03:10:11;12.40;99.90
11304;DHT22;5707;49.588;12.148;2023-08-31T03:12:37;12.40;99.90
11304;DHT22;5707;49.588;12.148;2023-08-31T03:15:04;12.50;99.90
11304;DHT22;5707;49.588;12.148;2023-08-31T03:17:29;12.50;99.90
11304;DHT22;5707;49.588;12.148;2023-08-31T03:19:55;12.50;99.90
11304;DHT22;5707;49.588;12.148;2023-08-31T03:22:20;12.50;99.90
11304;DHT22;5707;49.588;12.148;2023-08-31T03:24:46;12.60;99.90
11304;DHT22;5707;49.588;12.148;2023-08-31T03:27:11;12.60;99.90
11304;DHT22;5707;49.588;12.148;2023-08-31T03:29:37;12.60;99.90
11304;DHT22;5707;49.588;12.148;2023-08-31T03:32:03;12.60;99.90
11304;DHT22;5707;49.588;12.148;2023-08-31T03:34:32;12.60;99.90
11304;DHT22;5707;49.588;12.148;2023-08-31T03:36:58;12.60;99.90
11304;DHT22;5707;49.588;12.148;2023-08-31T03:39:25;12.60;99.90
11304;DHT22;5707;49.588;12.148;2023-08-31T03:41:50;12.60;99.90
11304;DHT22;5707;49.588;12.148;2023-08-31T03:44:16;12.50;99.90
11304;DHT22;5707;49.588;12.148;2023-08-31T03:46:42;12.50;99.90
11304;DHT22;5707;49.588;12.148;2023-08-31T03:49:08;12.40;99.90
11304;DHT22;5707;49.588;12.148;2023-08-31T03:51:34;12.40;99.90
11304;DHT22;5707;49.588;12.148;2023-08-31T03:53:59;12.40;99.90
11304;DHT22;5707;49.588;12.148;2023-08-31T03:56:25;12.40;99.90
11304;DHT22;5707;49.588;12.148;2023-08-31T03:58:52;12.40;99.90
11304;DHT22;5707;49.588;12.148;2023-08-31T04:01:17;12.40;99.90
11304;DHT22;5707;49.588;12.148;2023-08-31T04:03:43;12.40;99.90
11304;DHT22;5707;49.588;12.148;2023-08-31T04:06:09;12.40;99.90
11304;DHT22;5707;49.588;12.148;2023-08-31T04:08:34;12.40;99.90
11304;DHT22;5707;49.588;12.148;2023-08-31T04:11:00;12.40;99.90
11304;DHT22;5707;49.588;12.148;2023-08-31T04:13:26;12.30;99.90
11304;DHT22;5707;49.588;12.148;2023-08-31T04:15:52;12.30;99.90
11304;DHT22;5707;49.588;12.148;2023-08-31T04:18:18;12.20;99.90
11304;DHT22;5707;49.588;12.148;2023-08-31T04:20:52;12.10;99.90
11304;DHT22;5707;49.588;12.148;2023-08-31T04:23:18;12.10;99.90
11304;DHT22;5707;49.588;12.148;2023-08-31T04:25:45;12.00;99.90
11304;DHT22;5707;49.588;12.148;2023-08-31T04:28:10;12.00;99.90
11304;DHT22;5707;49.588;12.148;2023-08-31T04:30:36;12.00;99.90
11304;DHT22;5707;49.588;12.148;2023-08-31T04:33:01;12.10;99.90
11304;DHT22;5707;49.588;12.148;2023-08-31T04:35:30;12.10;99.90
11304;DHT22;5707;49.588;12.148;2023-08-31T04:37:57;12.10;99.90
11304;DHT22;5707;49.588;12.148;2023-08-31T04:40:22;12.10;99.90
11304;DHT22;5707;49.588;12.148;2023-08-31T04:42:48;12.10;99.90
11304;DHT22;5707;49.588;12.148;2023-08-31T04:45:13;12.10;99.90
11304;DHT22;5707;49.588;12.148;2023-08-31T04:47:39;12.00;99.90
11304;DHT22;5707;49.588;12.148;2023-08-31T04:50:05;12.00;99.90
11304;DHT22;5707;49.588;12.148;2023-08-31T04:52:32;11.90;99.90
11304;DHT22;5707;49.588;12.148;2023-08-31T04:54:57;11.70;99.90
11304;DHT22;5707;49.588;12.148;2023-08-31T04:57:23;11.60;99.90
11304;DHT22;5707;49.588;12.148;2023-08-31T04:59:49;11.50;99.90
11304;DHT22;5707;49.588;12.148;2023-08-31T05:02:15;11.50;99.90
11304;DHT22;5707;49.588;12.148;2023-08-31T05:04:40;11.40;99.90
11304;DHT22;5707;49.588;12.148;2023-08-31T05:07:06;11.40;99.90
11304;DHT22;5707;49.588;12.148;2023-08-31T05:09:32;11.40;99.90
11304;DHT22;5707;49.588;12.148;2023-08-31T05:12:00;11.40;99.90
11304;DHT22;5707;49.588;12.148;2023-08-31T05:14:27;11.50;99.90
11304;DHT22;5707;49.588;12.148;2023-08-31T05:16:52;11.50;99.90
11304;DHT22;5707;49.588;12.148;2023-08-31T05:19:18;11.60;99.90
11304;DHT22;5707;49.588;12.148;2023-08-31T05:21:44;11.60;99.90
11304;DHT22;5707;49.588;12.148;2023-08-31T05:24:09;11.70;99.90
11304;DHT22;5707;49.588;12.148;2023-08-31T05:26:35;11.70;99.90
11304;DHT22;5707;49.588;12.148;2023-08-31T05:29:01;11.70;99.90
11304;DHT22;5707;49.588;12.148;2023-08-31T05:31:29;11.80;99.90
11304;DHT22;5707;49.588;12.148;2023-08-31T05:33:55;11.90;99.90
11304;DHT22;5707;49.588;12.148;2023-08-31T05:36:20;12.00;99.90
11304;DHT22;5707;49.588;12.148;2023-08-31T05:38:46;12.00;99.90
11304;DHT22;5707;49.588;12.148;2023-08-31T05:41:12;12.10;99.90
11304;DHT22;5707;49.588;12.148;2023-08-31T05:43:37;12.20;99.90
11304;DHT22;5707;49.588;12.148;2023-08-31T05:46:06;12.20;99.90
11304;DHT22;5707;49.588;12.148;2023-08-31T05:48:31;12.30;99.90
11304;DHT22;5707;49.588;12.148;2023-08-31T05:50:57;12.50;99.90
11304;DHT22;5707;49.588;12.148;2023-08-31T05:53:23;12.60;99.90
11304;DHT22;5707;49.588;12.148;2023-08-31T05:55:48;12.70;99.90
11304;DHT22;5707;49.588;12.148;2023-08-31T05:58:14;12.90;99.90
11304;DHT22;5707;49.588;12.148;2023-08-31T06:00:39;13.00;99.90
11304;DHT22;5707;49.588;12.148;2023-08-31T06:03:05;13.10;99.90
11304;DHT22;5707;49.588;12.148;2023-08-31T06:05:32;13.30;99.90
11304;DHT22;5707;49.588;12.148;2023-08-31T06:07:58;13.40;99.90
11304;DHT22;5707;49.588;12.148;2023-08-31T06:10:23;13.60;99.90
11304;DHT22;5707;49.588;12.148;2023-08-31T06:12:50;14.00;99.90
11304;DHT22;5707;49.588;12.148;2023-08-31T06:15:16;14.40;99.90
11304;DHT22;5707;49.588;12.148;2023-08-31T06:17:42;14.90;99.90
11304;DHT22;5707;49.588;12.148;2023-08-31T06:20:09;15.40;99.90
11304;DHT22;5707;49.588;12.148;2023-08-31T06:22:34;15.90;99.90
11304;DHT22;5707;49.588;12.148;2023-08-31T06:25:00;16.50;99.90
11304;DHT22;5707;49.588;12.148;2023-08-31T06:27:26;16.80;99.90
11304;DHT22;5707;49.588;12.148;2023-08-31T06:29:52;16.90;99.90
11304;DHT22;5707;49.588;12.148;2023-08-31T06:32:17;16.90;99.90
11304;DHT22;5707;49.588;12.148;2023-08-31T06:34:44;16.90;99.90
11304;DHT22;5707;49.588;12.148;2023-08-31T06:37:10;16.70;99.90
11304;DHT22;5707;49.588;12.148;2023-08-31T06:39:35;16.60;99.90
11304;DHT22;5707;49.588;12.148;2023-08-31T06:42:02;16.50;99.90
11304;DHT22;5707;49.588;12.148;2023-08-31T06:44:27;16.40;99.90
11304;DHT22;5707;49.588;12.148;2023-08-31T06:46:55;16.20;99.90
11304;DHT22;5707;49.588;12.148;2023-08-31T06:49:21;16.00;99.90
11304;DHT22;5707;49.588;12.148;2023-08-31T06:51:47;15.90;99.90
11304;DHT22;5707;49.588;12.148;2023-08-31T06:54:13;15.80;99.90
11304;DHT22;5707;49.588;12.148;2023-08-31T06:56:38;15.90;99.90
11304;DHT22;5707;49.588;12.148;2023-08-31T06:59:04;15.90;99.90
11304;DHT22;5707;49.588;12.148;2023-08-31T07:01:29;15.90;99.90
11304;DHT22;5707;49.588;12.148;2023-08-31T07:03:55;16.00;99.90
11304;DHT22;5707;49.588;12.148;2023-08-31T07:06:21;16.10;99.90
11304;DHT22;5707;49.588;12.148;2023-08-31T07:08:46;16.30;99.90
11304;DHT22;5707;49.588;12.148;2023-08-31T07:11:13;16.40;99.90
11304;DHT22;5707;49.588;12.148;2023-08-31T07:13:39;16.90;99.90
11304;DHT22;5707;49.588;12.148;2023-08-31T07:16:05;17.30;99.90
11304;DHT22;5707;49.588;12.148;2023-08-31T07:18:31;17.30;99.90
11304;DHT22;5707;49.588;12.148;2023-08-31T07:20:57;17.30;99.90
11304;DHT22;5707;49.588;12.148;2023-08-31T07:23:23;17.50;99.90
11304;DHT22;5707;49.588;12.148;2023-08-31T07:25:48;17.60;99.90
11304;DHT22;5707;49.588;12.148;2023-08-31T07:28:14;17.60;99.90
11304;DHT22;5707;49.588;12.148;2023-08-31T07:30:40;17.60;99.90
11304;DHT22;5707;49.588;12.148;2023-08-31T07:33:06;17.40;99.90
11304;DHT22;5707;49.588;12.148;2023-08-31T07:35:32;17.40;99.90
11304;DHT22;5707;49.588;12.148;2023-08-31T07:37:58;17.90;99.90
11304;DHT22;5707;49.588;12.148;2023-08-31T07:40:23;18.20;99.90
11304;DHT22;5707;49.588;12.148;2023-08-31T07:42:50;18.20;99.90
11304;DHT22;5707;49.588;12.148;2023-08-31T07:45:17;17.90;99.90
11304;DHT22;5707;49.588;12.148;2023-08-31T07:47:42;18.10;99.90
11304;DHT22;5707;49.588;12.148;2023-08-31T07:50:08;18.20;99.90
11304;DHT22;5707;49.588;12.148;2023-08-31T07:52:34;18.30;99.90
11304;DHT22;5707;49.588;12.148;2023-08-31T07:55:00;18.60;99.90
11304;DHT22;5707;49.588;12.148;2023-08-31T07:57:26;18.70;99.90
11304;DHT22;5707;49.588;12.148;2023-08-31T07:59:51;18.70;99.90
11304;DHT22;5707;49.588;12.148;2023-08-31T08:02:17;18.40;99.90
11304;DHT22;5707;49.588;12.148;2023-08-31T08:04:42;18.40;99.90
11304;DHT22;5707;49.588;12.148;2023-08-31T08:07:08;18.20;99.90
11304;DHT22;5707;49.588;12.148;2023-08-31T08:09:34;18.10;99.90
11304;DHT22;5707;49.588;12.148;2023-08-31T08:12:01;18.20;99.90
11304;DHT22;5707;49.588;12.148;2023-08-31T08:14:26;18.60;99.90
11304;DHT22;5707;49.588;12.148;2023-08-31T08:16:52;18.80;99.90
11304;DHT22;5707;49.588;12.148;2023-08-31T08:19:24;19.00;99.90
11304;DHT22;5707;49.588;12.148;2023-08-31T08:21:50;18.90;99.90
11304;DHT22;5707;49.588;12.148;2023-08-31T08:24:16;18.60;99.90
11304;DHT22;5707;49.588;12.148;2023-08-31T08:26:41;18.40;99.90
11304;DHT22;5707;49.588;12.148;2023-08-31T08:29:07;17.90;99.90
11304;DHT22;5707;49.588;12.148;2023-08-31T08:31:32;17.50;99.90
11304;DHT22;5707;49.588;12.148;2023-08-31T08:33:58;17.30;99.90
11304;DHT22;5707;49.588;12.148;2023-08-31T08:36:24;17.40;99.90
11304;DHT22;5707;49.588;12.148;2023-08-31T08:38:49;17.80;99.90
11304;DHT22;5707;49.588;12.148;2023-08-31T08:41:15;18.30;99.90
11304;DHT22;5707;49.588;12.148;2023-08-31T08:43:47;18.50;99.90
11304;DHT22;5707;49.588;12.148;2023-08-31T08:46:13;18.50;99.90
11304;DHT22;5707;49.588;12.148;2023-08-31T08:48:39;18.50;99.90
11304;DHT22;5707;49.588;12.148;2023-08-31T08:51:06;18.40;99.90
11304;DHT22;5707;49.588;12.148;2023-08-31T08:53:33;18.60;99.90
11304;DHT22;5707;49.588;12.148;2023-08-31T08:55:58;18.70;95.50
11304;DHT22;5707;49.588;12.148;2023-08-31T08:58:24;19.00;93.60
11304;DHT22;5707;49.588;12.148;2023-08-31T09:00:51;18.80;98.90
11304;DHT22;5707;49.588;12.148;2023-08-31T09:03:17;19.00;97.50
11304;DHT22;5707;49.588;12.148;2023-08-31T09:05:43;19.20;94.40
11304;DHT22;5707;49.588;12.148;2023-08-31T09:08:09;19.20;96.60
11304;DHT22;5707;49.588;12.148;2023-08-31T09:10:39;19.30;97.80
11304;DHT22;5707;49.588;12.148;2023-08-31T09:13:15;19.60;91.80
11304;DHT22;5707;49.588;12.148;2023-08-31T09:15:48;19.70;92.80
11304;DHT22;5707;49.588;12.148;2023-08-31T09:18:26;19.80;93.30
11304;DHT22;5707;49.588;12.148;2023-08-31T09:20:53;19.80;90.70
11304;DHT22;5707;49.588;12.148;2023-08-31T09:23:19;19.90;94.20
11304;DHT22;5707;49.588;12.148;2023-08-31T09:25:54;19.80;89.70
11304;DHT22;5707;49.588;12.148;2023-08-31T09:28:27;19.40;90.00
11304;DHT22;5707;49.588;12.148;2023-08-31T09:30:53;19.00;91.40
11304;DHT22;5707;49.588;12.148;2023-08-31T09:33:27;18.90;92.40
11304;DHT22;5707;49.588;12.148;2023-08-31T09:35:56;18.80;91.60
11304;DHT22;5707;49.588;12.148;2023-08-31T09:38:22;18.80;93.50
11304;DHT22;5707;49.588;12.148;2023-08-31T09:40:48;18.90;90.00
11304;DHT22;5707;49.588;12.148;2023-08-31T09:43:23;18.90;92.20
11304;DHT22;5707;49.588;12.148;2023-08-31T09:45:49;18.80;94.30
11304;DHT22;5707;49.588;12.148;2023-08-31T09:48:16;18.80;94.10
11304;DHT22;5707;49.588;12.148;2023-08-31T09:50:44;18.80;93.40
11304;DHT22;5707;49.588;12.148;2023-08-31T09:53:11;18.70;93.10
11304;DHT22;5707;49.588;12.148;2023-08-31T09:55:39;18.80;93.40
11304;DHT22;5707;49.588;12.148;2023-08-31T09:58:06;18.90;92.60
11304;DHT22;5707;49.588;12.148;2023-08-31T10:00:35;18.90;90.80
11304;DHT22;5707;49.588;12.148;2023-08-31T10:03:03;18.90;76.70
11304;DHT22;5707;49.588;12.148;2023-08-31T10:05:30;19.00;79.90
11304;DHT22;5707;49.588;12.148;2023-08-31T10:07:57;19.30;88.40
11304;DHT22;5707;49.588;12.148;2023-08-31T10:10:24;19.80;78.90
11304;DHT22;5707;49.588;12.148;2023-08-31T10:12:50;20.20;86.60
11304;DHT22;5707;49.588;12.148;2023-08-31T10:15:17;20.50;79.30
11304;DHT22;5707;49.588;12.148;2023-08-31T10:17:44;20.30;73.60
11304;DHT22;5707;49.588;12.148;2023-08-31T10:20:12;20.10;67.80
11304;DHT22;5707;49.588;12.148;2023-08-31T10:22:38;20.20;68.40
11304;DHT22;5707;49.588;12.148;2023-08-31T10:25:05;20.10;67.60
11304;DHT22;5707;49.588;12.148;2023-08-31T10:27:44;19.80;61.20
11304;DHT22;5707;49.588;12.148;2023-08-31T10:36:01;20.10;72.00
11304;DHT22;5707;49.588;12.148;2023-08-31T10:38:28;20.60;76.50
11304;DHT22;5707;49.588;12.148;2023-08-31T10:43:50;20.60;67.30
11304;DHT22;5707;49.588;12.148;2023-08-31T10:46:26;20.40;64.00
11304;DHT22;5707;49.588;12.148;2023-08-31T10:51:31;19.60;64.10
11304;DHT22;5707;49.588;12.148;2023-08-31T10:54:20;19.60;73.50
11304;DHT22;5707;49.588;12.148;2023-08-31T10:59:26;19.30;63.50
11304;DHT22;5707;49.588;12.148;2023-08-31T11:01:59;19.30;68.40
11304;DHT22;5707;49.588;12.148;2023-08-31T11:04:27;19.70;73.60
11304;DHT22;5707;49.588;12.148;2023-08-31T11:09:37;20.80;66.90
11304;DHT22;5707;49.588;12.148;2023-08-31T11:12:03;21.10;51.60
11304;DHT22;5707;49.588;12.148;2023-08-31T11:14:29;21.10;54.20
11304;DHT22;5707;49.588;12.148;2023-08-31T11:16:55;21.10;50.70
11304;DHT22;5707;49.588;12.148;2023-08-31T11:19:21;21.30;56.50
11304;DHT22;5707;49.588;12.148;2023-08-31T11:21:47;21.50;52.30
11304;DHT22;5707;49.588;12.148;2023-08-31T11:24:12;21.70;46.10
11304;DHT22;5707;49.588;12.148;2023-08-31T11:26:38;22.00;40.80
11304;DHT22;5707;49.588;12.148;2023-08-31T11:29:07;22.10;36.80
11304;DHT22;5707;49.588;12.148;2023-08-31T11:31:37;22.50;39.10
11304;DHT22;5707;49.588;12.148;2023-08-31T11:34:04;22.70;35.60
11304;DHT22;5707;49.588;12.148;2023-08-31T11:36:31;22.90;37.50
11304;DHT22;5707;49.588;12.148;2023-08-31T11:38:56;23.00;40.20
11304;DHT22;5707;49.588;12.148;2023-08-31T11:41:23;23.20;38.10
11304;DHT22;5707;49.588;12.148;2023-08-31T11:43:49;23.10;32.30
11304;DHT22;5707;49.588;12.148;2023-08-31T11:46:16;22.60;33.30
11304;DHT22;5707;49.588;12.148;2023-08-31T11:48:43;22.20;38.30
11304;DHT22;5707;49.588;12.148;2023-08-31T11:51:09;21.60;33.50
11304;DHT22;5707;49.588;12.148;2023-08-31T11:53:35;21.30;38.70
11304;DHT22;5707;49.588;12.148;2023-08-31T11:56:04;21.50;39.90
11304;DHT22;5707;49.588;12.148;2023-08-31T11:58:30;22.20;38.60
11304;DHT22;5707;49.588;12.148;2023-08-31T12:00:59;22.80;38.90
11304;DHT22;5707;49.588;12.148;2023-08-31T12:03:27;23.20;33.00
11304;DHT22;5707;49.588;12.148;2023-08-31T12:05:52;23.30;32.70
11304;DHT22;5707;49.588;12.148;2023-08-31T12:08:29;23.10;32.50
11304;DHT22;5707;49.588;12.148;2023-08-31T12:10:54;23.10;35.90
11304;DHT22;5707;49.588;12.148;2023-08-31T12:13:25;23.30;32.30
11304;DHT22;5707;49.588;12.148;2023-08-31T12:15:53;23.10;32.60
11304;DHT22;5707;49.588;12.148;2023-08-31T12:18:19;23.20;31.10
11304;DHT22;5707;49.588;12.148;2023-08-31T12:20:51;23.10;32.20
11304;DHT22;5707;49.588;12.148;2023-08-31T12:23:18;23.20;34.20
11304;DHT22;5707;49.588;12.148;2023-08-31T12:25:51;23.70;33.90
11304;DHT22;5707;49.588;12.148;2023-08-31T12:28:21;23.80;26.20
11304;DHT22;5707;49.588;12.148;2023-08-31T12:30:51;23.70;31.90
11304;DHT22;5707;49.588;12.148;2023-08-31T12:33:18;23.80;27.90
11304;DHT22;5707;49.588;12.148;2023-08-31T12:35:44;23.40;27.40
11304;DHT22;5707;49.588;12.148;2023-08-31T12:38:11;23.00;33.30
11304;DHT22;5707;49.588;12.148;2023-08-31T12:40:37;23.00;32.60
11304;DHT22;5707;49.588;12.148;2023-08-31T12:43:05;23.20;31.40
11304;DHT22;5707;49.588;12.148;2023-08-31T12:45:31;23.50;32.80
11304;DHT22;5707;49.588;12.148;2023-08-31T12:47:57;23.80;31.20
11304;DHT22;5707;49.588;12.148;2023-08-31T12:50:23;23.60;25.10
11304;DHT22;5707;49.588;12.148;2023-08-31T12:52:48;23.20;26.80
11304;DHT22;5707;49.588;12.148;2023-08-31T12:55:14;23.00;27.30
11304;DHT22;5707;49.588;12.148;2023-08-31T12:57:41;23.20;32.30
11304;DHT22;5707;49.588;12.148;2023-08-31T13:00:08;23.40;30.20
11304;DHT22;5707;49.588;12.148;2023-08-31T13:02:40;23.40;34.20
11304;DHT22;5707;49.588;12.148;2023-08-31T13:05:06;23.20;30.00
11304;DHT22;5707;49.588;12.148;2023-08-31T13:07:36;23.00;26.50
11304;DHT22;5707;49.588;12.148;2023-08-31T13:10:04;22.70;29.70
11304;DHT22;5707;49.588;12.148;2023-08-31T13:12:33;22.70;31.00
11304;DHT22;5707;49.588;12.148;2023-08-31T13:14:59;22.90;33.00
11304;DHT22;5707;49.588;12.148;2023-08-31T13:17:25;22.80;29.40
11304;DHT22;5707;49.588;12.148;2023-08-31T13:19:55;22.60;31.50
11304;DHT22;5707;49.588;12.148;2023-08-31T13:22:21;22.60;34.40
11304;DHT22;5707;49.588;12.148;2023-08-31T13:24:47;22.80;30.30
11304;DHT22;5707;49.588;12.148;2023-08-31T13:27:13;22.80;30.00
11304;DHT22;5707;49.588;12.148;2023-08-31T13:29:42;22.30;30.70
11304;DHT22;5707;49.588;12.148;2023-08-31T13:32:08;21.90;35.10
11304;DHT22;5707;49.588;12.148;2023-08-31T13:34:34;21.40;32.40
11304;DHT22;5707;49.588;12.148;2023-08-31T13:37:00;20.70;36.30
11304;DHT22;5707;49.588;12.148;2023-08-31T13:39:26;20.40;41.70
11304;DHT22;5707;49.588;12.148;2023-08-31T13:41:52;20.30;36.20
11304;DHT22;5707;49.588;12.148;2023-08-31T13:44:19;20.10;35.50
11304;DHT22;5707;49.588;12.148;2023-08-31T13:46:45;20.20;32.00
11304;DHT22;5707;49.588;12.148;2023-08-31T13:49:11;20.30;34.60
11304;DHT22;5707;49.588;12.148;2023-08-31T13:51:37;20.50;33.90
11304;DHT22;5707;49.588;12.148;2023-08-31T13:54:03;20.60;36.10
11304;DHT22;5707;49.588;12.148;2023-08-31T13:56:35;20.80;38.20
11304;DHT22;5707;49.588;12.148;2023-08-31T13:59:00;20.90;32.70
11304;DHT22;5707;49.588;12.148;2023-08-31T14:01:26;20.90;31.70
11304;DHT22;5707;49.588;12.148;2023-08-31T14:03:52;21.00;34.60
11304;DHT22;5707;49.588;12.148;2023-08-31T14:06:18;21.30;35.00
11304;DHT22;5707;49.588;12.148;2023-08-31T14:08:44;21.50;36.60
11304;DHT22;5707;49.588;12.148;2023-08-31T14:11:09;21.40;40.70
11304;DHT22;5707;49.588;12.148;2023-08-31T14:13:35;21.10;32.20
11304;DHT22;5707;49.588;12.148;2023-08-31T14:16:01;20.80;38.00
11304;DHT22;5707;49.588;12.148;2023-08-31T14:18:27;20.30;39.20
11304;DHT22;5707;49.588;12.148;2023-08-31T14:20:54;19.90;37.90
11304;DHT22;5707;49.588;12.148;2023-08-31T14:23:20;20.00;39.20
11304;DHT22;5707;49.588;12.148;2023-08-31T14:25:46;20.10;43.10
11304;DHT22;5707;49.588;12.148;2023-08-31T14:28:11;20.20;42.40
11304;DHT22;5707;49.588;12.148;2023-08-31T14:30:37;20.40;43.40
11304;DHT22;5707;49.588;12.148;2023-08-31T14:33:03;20.50;43.10
11304;DHT22;5707;49.588;12.148;2023-08-31T14:35:29;20.40;42.80
11304;DHT22;5707;49.588;12.148;2023-08-31T14:37:54;20.30;40.60
11304;DHT22;5707;49.588;12.148;2023-08-31T14:40:20;20.20;41.90
11304;DHT22;5707;49.588;12.148;2023-08-31T14:42:46;20.30;38.70
11304;DHT22;5707;49.588;12.148;2023-08-31T14:45:11;20.40;40.10
11304;DHT22;5707;49.588;12.148;2023-08-31T14:47:37;20.30;39.10
11304;DHT22;5707;49.588;12.148;2023-08-31T14:50:02;20.40;38.50
11304;DHT22;5707;49.588;12.148;2023-08-31T14:52:30;20.60;37.90
11304;DHT22;5707;49.588;12.148;2023-08-31T14:54:55;20.60;33.10
11304;DHT22;5707;49.588;12.148;2023-08-31T14:57:21;20.40;30.50
11304;DHT22;5707;49.588;12.148;2023-08-31T14:59:46;20.30;35.20
11304;DHT22;5707;49.588;12.148;2023-08-31T15:02:12;20.20;30.10
11304;DHT22;5707;49.588;12.148;2023-08-31T15:04:39;20.10;30.30
11304;DHT22;5707;49.588;12.148;2023-08-31T15:07:05;20.10;36.00
11304;DHT22;5707;49.588;12.148;2023-08-31T15:09:31;20.10;30.90
11304;DHT22;5707;49.588;12.148;2023-08-31T15:11:57;20.10;31.70
11304;DHT22;5707;49.588;12.148;2023-08-31T15:14:23;20.20;27.10
11304;DHT22;5707;49.588;12.148;2023-08-31T15:16:48;20.20;28.60
11304;DHT22;5707;49.588;12.148;2023-08-31T15:19:14;20.20;27.50
11304;DHT22;5707;49.588;12.148;2023-08-31T15:21:39;20.30;28.40
11304;DHT22;5707;49.588;12.148;2023-08-31T15:24:05;20.40;28.60
11304;DHT22;5707;49.588;12.148;2023-08-31T15:26:30;20.40;28.80
11304;DHT22;5707;49.588;12.148;2023-08-31T15:28:56;20.30;31.60
11304;DHT22;5707;49.588;12.148;2023-08-31T15:31:22;20.20;28.90
11304;DHT22;5707;49.588;12.148;2023-08-31T15:33:48;20.00;30.20
11304;DHT22;5707;49.588;12.148;2023-08-31T15:36:13;19.90;28.90
11304;DHT22;5707;49.588;12.148;2023-08-31T15:38:39;19.70;34.40
11304;DHT22;5707;49.588;12.148;2023-08-31T15:41:06;19.60;38.90
11304;DHT22;5707;49.588;12.148;2023-08-31T15:43:35;19.50;36.80
11304;DHT22;5707;49.588;12.148;2023-08-31T15:46:03;19.60;36.10
11304;DHT22;5707;49.588;12.148;2023-08-31T15:48:29;19.70;35.30
11304;DHT22;5707;49.588;12.148;2023-08-31T15:50:55;19.70;41.00
11304;DHT22;5707;49.588;12.148;2023-08-31T15:53:21;19.70;42.10
11304;DHT22;5707;49.588;12.148;2023-08-31T15:55:47;19.50;43.10